createdAt,value
2019-05-26T00:02:16.286Z,15.20
2019-05-26T00:04:44.975Z,15.20
2019-05-26T00:07:27.935Z,15.20
2019-05-26T00:09:44.066Z,15.20
2019-05-26T00:12:15.877Z,15.20
2019-05-26T00:14:43.167Z,15.20
2019-05-26T00:17:11.850Z,15.20
2019-05-26T00:19:40.617Z,15.20
2019-05-26T00:22:09.339Z,15.10
2019-05-26T00:24:37.982Z,15.10
2019-05-26T00:27:06.738Z,15.10
2019-05-26T00:29:35.429Z,15.10
2019-05-26T00:32:04.110Z,15.00
2019-05-26T00:34:32.834Z,15.10
2019-05-26T00:37:01.520Z,15.10
2019-05-26T00:39:30.267Z,15.00
2019-05-26T00:41:58.955Z,15.00
2019-05-26T00:44:27.642Z,14.90
2019-05-26T00:46:56.367Z,14.90
2019-05-26T00:49:25.060Z,14.80
2019-05-26T00:51:53.811Z,14.80
2019-05-26T00:54:22.792Z,14.80
2019-05-26T00:56:51.479Z,14.80
2019-05-26T00:59:20.205Z,14.80
2019-05-26T01:01:48.893Z,14.80
2019-05-26T01:04:17.663Z,14.70
2019-05-26T01:06:46.346Z,14.60
2019-05-26T01:09:15.033Z,14.60
2019-05-26T01:11:43.763Z,14.50
2019-05-26T01:14:12.444Z,14.50
2019-05-26T01:16:41.127Z,14.50
2019-05-26T01:19:09.838Z,14.50
2019-05-26T01:21:38.523Z,14.40
2019-05-26T01:24:07.281Z,14.40
2019-05-26T01:26:35.957Z,14.40
2019-05-26T01:29:04.643Z,14.30
2019-05-26T01:31:33.353Z,14.30
2019-05-26T01:34:02.034Z,14.40
2019-05-26T01:36:30.795Z,14.40
2019-05-26T01:38:59.474Z,14.30
2019-05-26T01:41:28.172Z,14.30
2019-05-26T01:43:56.899Z,14.20
2019-05-26T01:46:25.581Z,14.20
2019-05-26T01:48:54.339Z,14.10
2019-05-26T01:51:23.028Z,14.00
2019-05-26T01:53:51.707Z,13.90
2019-05-26T01:56:20.451Z,13.90
2019-05-26T01:58:49.127Z,13.80
2019-05-26T02:01:17.812Z,13.80
2019-05-26T02:03:46.534Z,13.80
2019-05-26T02:06:15.229Z,13.80
2019-05-26T02:08:43.982Z,13.80
2019-05-26T02:11:12.675Z,13.70
2019-05-26T02:13:41.352Z,13.70
2019-05-26T02:16:10.074Z,13.50
2019-05-26T02:18:38.763Z,13.40
2019-05-26T02:21:07.759Z,13.40
2019-05-26T02:23:36.629Z,13.40
2019-05-26T02:26:05.315Z,13.40
2019-05-26T02:28:34.054Z,13.40
2019-05-26T02:31:02.743Z,13.30
2019-05-26T02:33:31.430Z,13.30
2019-05-26T02:36:00.154Z,13.30
2019-05-26T02:38:28.836Z,13.30
2019-05-26T02:40:57.587Z,13.20
2019-05-26T02:43:26.262Z,13.30
2019-05-26T02:45:54.964Z,13.30
2019-05-26T02:48:23.668Z,13.30
2019-05-26T02:50:52.345Z,13.30
2019-05-26T02:53:24.557Z,13.30
2019-05-26T02:55:51.425Z,13.30
2019-05-26T02:58:20.130Z,13.20
2019-05-26T03:00:48.843Z,13.20
2019-05-26T03:03:17.533Z,13.20
2019-05-26T03:05:46.282Z,13.20
2019-05-26T03:08:15.485Z,13.10
2019-05-26T03:10:44.179Z,13.10
2019-05-26T03:13:16.209Z,13.10
2019-05-26T03:15:45.004Z,13.00
2019-05-26T03:18:13.665Z,13.00
2019-05-26T03:20:42.387Z,13.10
2019-05-26T03:23:11.071Z,13.10
2019-05-26T03:25:40.423Z,13.10
2019-05-26T03:28:09.321Z,13.00
2019-05-26T03:30:38.058Z,12.90
2019-05-26T03:33:06.870Z,12.70
2019-05-26T03:35:35.528Z,12.60
2019-05-26T03:38:04.280Z,12.60
2019-05-26T03:40:32.971Z,12.60
2019-05-26T03:43:02.629Z,12.60
2019-05-26T03:45:43.143Z,12.70
2019-05-26T03:48:11.815Z,12.70
2019-05-26T03:50:40.579Z,12.80
2019-05-26T03:53:09.253Z,12.70
2019-05-26T03:55:37.944Z,12.60
2019-05-26T03:58:06.755Z,12.60
2019-05-26T04:00:35.479Z,12.60
2019-05-26T04:03:04.169Z,12.60
2019-05-26T04:05:32.877Z,12.60
2019-05-26T04:08:04.878Z,12.70
2019-05-26T04:10:31.955Z,12.70
2019-05-26T04:13:00.641Z,12.80
2019-05-26T04:15:29.315Z,12.80
2019-05-26T04:17:58.042Z,12.80
2019-05-26T04:20:26.725Z,12.90
2019-05-26T04:22:55.458Z,12.90
2019-05-26T04:25:24.143Z,13.00
2019-05-26T04:27:52.830Z,13.00
2019-05-26T04:30:21.541Z,13.00
2019-05-26T04:32:50.225Z,12.90
2019-05-26T04:35:18.983Z,13.00
2019-05-26T04:37:47.662Z,13.10
2019-05-26T04:40:26.622Z,13.10
2019-05-26T04:42:46.746Z,13.10
2019-05-26T04:45:15.429Z,13.10
2019-05-26T04:47:44.107Z,13.20
2019-05-26T04:50:12.826Z,13.30
2019-05-26T04:52:41.514Z,13.30
2019-05-26T04:55:10.306Z,13.20
2019-05-26T04:57:38.990Z,13.30
2019-05-26T05:00:08.690Z,13.30
2019-05-26T05:02:37.475Z,13.30
2019-05-26T05:05:07.250Z,13.30
2019-05-26T05:07:35.999Z,13.40
2019-05-26T05:10:05.686Z,13.70
2019-05-26T05:12:34.374Z,13.90
2019-05-26T05:15:04.099Z,14.00
2019-05-26T05:17:32.783Z,13.80
2019-05-26T05:20:01.547Z,13.80
2019-05-26T05:22:30.391Z,13.80
2019-05-26T05:24:59.083Z,13.80
2019-05-26T05:27:27.834Z,13.70
2019-05-26T05:29:56.527Z,13.70
2019-05-26T05:32:25.224Z,13.70
2019-05-26T05:34:53.938Z,13.70
2019-05-26T05:37:25.207Z,13.70
2019-05-26T05:39:53.030Z,13.80
2019-05-26T05:42:21.912Z,13.90
2019-05-26T05:44:50.623Z,13.90
2019-05-26T05:47:19.346Z,13.90
2019-05-26T05:49:48.030Z,14.00
2019-05-26T05:52:16.783Z,14.10
2019-05-26T05:54:45.466Z,14.10
2019-05-26T05:57:14.148Z,14.20
2019-05-26T05:59:42.903Z,14.10
2019-05-26T06:02:11.615Z,14.20
2019-05-26T06:04:40.292Z,14.20
2019-05-26T06:07:09.046Z,14.20
2019-05-26T06:09:38.815Z,14.20
2019-05-26T06:12:07.568Z,14.30
2019-05-26T06:14:36.317Z,14.30
2019-05-26T06:17:05.036Z,14.40
2019-05-26T06:19:33.754Z,14.40
2019-05-26T06:22:02.448Z,14.50
2019-05-26T06:24:31.189Z,14.50
2019-05-26T06:27:00.071Z,14.50
2019-05-26T06:29:28.765Z,14.60
2019-05-26T06:31:58.077Z,14.60
2019-05-26T06:34:27.070Z,14.60
2019-05-26T06:36:55.838Z,14.70
2019-05-26T06:39:24.530Z,14.70
2019-05-26T06:41:53.199Z,14.70
2019-05-26T06:44:21.970Z,14.70
2019-05-26T06:46:50.659Z,14.70
2019-05-26T06:49:19.338Z,14.80
2019-05-26T06:51:48.070Z,14.80
2019-05-26T06:54:16.767Z,15.00
2019-05-26T06:56:45.515Z,15.10
2019-05-26T06:59:14.198Z,15.20
2019-05-26T07:01:42.883Z,15.20
2019-05-26T07:04:11.605Z,15.30
2019-05-26T07:06:40.297Z,15.20
2019-05-26T07:09:09.086Z,15.30
2019-05-26T07:11:53.801Z,15.30
2019-05-26T07:14:08.116Z,15.30
2019-05-26T07:16:38.749Z,15.30
2019-05-26T07:19:07.174Z,15.40
2019-05-26T07:21:35.928Z,15.50
2019-05-26T07:24:04.800Z,15.50
2019-05-26T07:26:33.491Z,15.50
2019-05-26T07:29:02.262Z,15.60
2019-05-26T07:31:30.938Z,15.60
2019-05-26T07:33:59.618Z,15.60
2019-05-26T07:36:28.348Z,15.70
2019-05-26T07:39:05.936Z,15.70
2019-05-26T07:41:34.703Z,15.80
2019-05-26T07:44:03.403Z,15.80
2019-05-26T07:46:32.098Z,15.90
2019-05-26T07:49:00.827Z,15.90
2019-05-26T07:51:29.499Z,16.00
2019-05-26T07:53:58.300Z,16.10
2019-05-26T07:56:26.996Z,16.00
2019-05-26T07:58:55.687Z,16.10
2019-05-26T08:01:24.710Z,16.20
2019-05-26T08:03:53.467Z,16.20
2019-05-26T08:06:22.170Z,16.30
2019-05-26T08:08:50.903Z,16.40
2019-05-26T08:11:19.587Z,16.40
2019-05-26T08:13:48.367Z,16.50
2019-05-26T08:16:17.064Z,16.50
2019-05-26T08:18:45.821Z,16.70
2019-05-26T08:21:14.574Z,16.70
2019-05-26T08:23:43.251Z,16.80
2019-05-26T08:26:12.044Z,16.70
2019-05-26T08:28:40.758Z,16.70
2019-05-26T08:31:12.745Z,16.90
2019-05-26T08:33:39.801Z,16.90
2019-05-26T08:36:08.479Z,16.90
2019-05-26T08:38:37.278Z,17.00
2019-05-26T08:41:05.961Z,16.90
2019-05-26T08:43:34.678Z,16.90
2019-05-26T08:46:03.427Z,17.00
2019-05-26T08:48:32.127Z,17.10
2019-05-26T08:51:00.833Z,17.10
2019-05-26T08:53:29.541Z,17.00
2019-05-26T08:55:58.232Z,17.10
2019-05-26T08:58:29.458Z,17.10
2019-05-26T09:00:57.758Z,17.10
2019-05-26T09:03:26.457Z,17.20
2019-05-26T09:05:55.172Z,17.30
2019-05-26T09:08:23.855Z,17.40
2019-05-26T09:10:52.625Z,17.40
2019-05-26T09:13:21.301Z,17.40
2019-05-26T09:15:50.007Z,17.40
2019-05-26T09:18:18.729Z,17.50
2019-05-26T09:20:47.427Z,17.50
2019-05-26T09:23:16.211Z,17.60
2019-05-26T09:25:46.612Z,17.60
2019-05-26T09:28:15.247Z,17.70
2019-05-26T09:30:44.011Z,17.60
2019-05-26T09:33:12.693Z,17.60
2019-05-26T09:35:41.392Z,17.70
2019-05-26T09:38:10.135Z,17.70
2019-05-26T09:40:38.815Z,17.70
2019-05-26T09:43:15.529Z,17.80
2019-05-26T09:45:37.946Z,17.80
2019-05-26T09:48:06.664Z,17.80
2019-05-26T09:50:35.397Z,17.80
2019-05-26T09:53:04.078Z,17.80
2019-05-26T09:55:32.857Z,17.80
2019-05-26T09:58:01.945Z,17.90
2019-05-26T10:00:30.642Z,18.00
2019-05-26T10:02:59.380Z,18.00
2019-05-26T10:05:28.050Z,18.10
2019-05-26T10:07:56.796Z,18.10
2019-05-26T10:10:25.473Z,18.10
2019-05-26T10:12:54.174Z,18.20
2019-05-26T10:15:22.937Z,18.30
2019-05-26T10:17:51.642Z,18.30
2019-05-26T10:20:20.320Z,18.20
2019-05-26T10:22:49.079Z,18.40
2019-05-26T10:25:17.787Z,18.30
2019-05-26T10:27:46.543Z,18.40
2019-05-26T10:30:15.221Z,18.50
2019-05-26T10:32:44.432Z,18.60
2019-05-26T10:35:13.161Z,18.60
2019-05-26T10:37:41.841Z,18.50
2019-05-26T10:40:11.724Z,18.60
2019-05-26T10:42:40.437Z,18.70
2019-05-26T10:45:09.136Z,18.70
2019-05-26T10:47:37.865Z,18.90
2019-05-26T10:50:08.122Z,19.00
2019-05-26T10:52:36.882Z,19.10
2019-05-26T10:55:06.868Z,19.30
2019-05-26T10:57:35.572Z,19.40
2019-05-26T11:00:08.065Z,19.50
2019-05-26T11:02:36.820Z,19.50
2019-05-26T11:05:07.099Z,19.60
2019-05-26T11:07:35.833Z,19.60
2019-05-26T11:10:06.126Z,19.70
2019-05-26T11:12:34.886Z,19.80
2019-05-26T11:15:04.994Z,19.90
2019-05-26T11:17:33.685Z,20.00
2019-05-26T11:20:02.406Z,20.00
2019-05-26T11:22:31.101Z,20.10
2019-05-26T11:24:59.909Z,20.20
2019-05-26T11:27:28.603Z,20.30
2019-05-26T11:29:57.275Z,20.40
2019-05-26T11:32:25.974Z,20.40
2019-05-26T11:35:01.713Z,20.40
2019-05-26T11:37:25.233Z,20.40
2019-05-26T11:39:53.919Z,20.50
2019-05-26T11:42:22.607Z,20.60
2019-05-26T11:44:51.371Z,20.70
2019-05-26T11:47:20.084Z,20.80
2019-05-26T11:49:48.747Z,20.90
2019-05-26T11:52:20.238Z,20.90
2019-05-26T11:54:47.803Z,21.00
2019-05-26T11:57:16.554Z,21.10
2019-05-26T11:59:47.393Z,21.20
2019-05-26T12:02:15.583Z,21.20
2019-05-26T12:04:44.312Z,21.20
2019-05-26T12:07:12.997Z,21.30
2019-05-26T12:09:41.861Z,21.60
2019-05-26T12:12:10.579Z,21.80
2019-05-26T12:14:39.273Z,21.80
2019-05-26T12:17:08.027Z,21.90
2019-05-26T12:19:36.755Z,22.00
2019-05-26T12:22:05.526Z,22.10
2019-05-26T12:24:34.211Z,21.90
2019-05-26T12:27:02.883Z,21.60
2019-05-26T12:29:31.640Z,21.60
2019-05-26T12:32:00.326Z,21.80
2019-05-26T12:34:29.011Z,21.70
2019-05-26T12:36:57.731Z,21.90
2019-05-26T12:39:26.419Z,22.00
2019-05-26T12:41:55.330Z,21.90
2019-05-26T12:44:24.013Z,21.90
2019-05-26T12:46:52.713Z,22.00
2019-05-26T12:49:21.440Z,22.00
2019-05-26T12:51:50.161Z,21.90
2019-05-26T12:54:18.895Z,22.10
2019-05-26T12:56:47.596Z,22.30
2019-05-26T12:59:16.283Z,22.50
2019-05-26T13:01:45.027Z,22.90
2019-05-26T13:04:13.695Z,23.20
2019-05-26T13:06:42.551Z,23.60
2019-05-26T13:09:11.847Z,24.20
2019-05-26T13:11:40.535Z,24.70
2019-05-26T13:14:09.299Z,25.10
2019-05-26T13:16:37.994Z,25.70
2019-05-26T13:19:06.702Z,26.70
2019-05-26T13:21:35.426Z,27.50
2019-05-26T13:24:04.122Z,28.70
2019-05-26T13:26:32.886Z,29.90
2019-05-26T13:29:01.563Z,31.00
2019-05-26T13:31:30.254Z,31.80
2019-05-26T13:33:58.982Z,31.60
2019-05-26T13:36:27.725Z,31.40
2019-05-26T13:38:56.532Z,31.20
2019-05-26T13:41:25.229Z,31.10
2019-05-26T13:43:53.934Z,32.00
2019-05-26T13:46:22.655Z,32.20
2019-05-26T13:48:51.354Z,33.20
2019-05-26T13:51:20.090Z,34.20
2019-05-26T13:53:48.792Z,35.00
2019-05-26T13:56:17.513Z,35.30
2019-05-26T13:58:46.268Z,36.00
2019-05-26T14:01:14.982Z,36.00
2019-05-26T14:03:43.672Z,35.70
2019-05-26T14:06:12.399Z,34.50
2019-05-26T14:08:41.099Z,34.50
2019-05-26T14:11:09.854Z,34.50
2019-05-26T14:13:38.546Z,35.40
2019-05-26T14:16:07.240Z,36.40
2019-05-26T14:18:36.300Z,37.80
2019-05-26T14:21:05.151Z,37.50
2019-05-26T14:23:33.910Z,36.30
2019-05-26T14:26:02.604Z,35.70
2019-05-26T14:28:31.286Z,35.40
2019-05-26T14:31:00.041Z,36.40
2019-05-26T14:33:28.813Z,37.10
2019-05-26T14:35:57.570Z,37.60
2019-05-26T14:38:40.540Z,37.80
2019-05-26T14:40:56.584Z,37.40
2019-05-26T14:43:25.409Z,37.20
2019-05-26T14:45:54.198Z,36.50
2019-05-26T14:48:22.891Z,35.40
2019-05-26T14:50:51.676Z,35.70
2019-05-26T14:53:20.424Z,36.20
2019-05-26T14:55:49.265Z,37.10
2019-05-26T14:58:17.968Z,37.60
2019-05-26T15:00:46.650Z,38.20
2019-05-26T15:03:15.374Z,36.60
2019-05-26T15:05:44.062Z,35.00
2019-05-26T15:08:12.843Z,34.60
2019-05-26T15:10:41.528Z,33.60
2019-05-26T15:13:10.214Z,33.20
2019-05-26T15:15:38.982Z,33.00
2019-05-26T15:18:07.667Z,32.80
2019-05-26T15:20:36.409Z,32.80
2019-05-26T15:23:05.108Z,32.70
2019-05-26T15:25:33.784Z,32.50
2019-05-26T15:28:02.605Z,32.30
2019-05-26T15:30:31.356Z,32.10
2019-05-26T15:33:00.077Z,32.00
2019-05-26T15:35:28.798Z,31.90
2019-05-26T15:37:57.576Z,31.90
2019-05-26T15:40:26.335Z,32.40
2019-05-26T15:42:55.031Z,32.10
2019-05-26T15:45:23.733Z,31.90
2019-05-26T15:47:52.478Z,31.60
2019-05-26T15:50:21.166Z,30.70
2019-05-26T15:52:50.059Z,30.00
2019-05-26T15:55:18.738Z,29.90
2019-05-26T15:57:47.428Z,29.80
2019-05-26T16:00:16.168Z,29.40
2019-05-26T16:02:44.857Z,29.50
2019-05-26T16:05:13.642Z,29.50
2019-05-26T16:07:42.293Z,29.50
2019-05-26T16:10:11.051Z,29.40
2019-05-26T16:12:39.762Z,29.30
2019-05-26T16:15:08.469Z,29.00
2019-05-26T16:17:39.002Z,28.80
2019-05-26T16:20:10.543Z,28.50
2019-05-26T16:22:39.223Z,28.40
2019-05-26T16:25:07.987Z,28.20
2019-05-26T16:27:36.727Z,28.10
2019-05-26T16:30:07.542Z,28.20
2019-05-26T16:32:36.264Z,28.10
2019-05-26T16:35:05.813Z,27.90
2019-05-26T16:37:34.613Z,27.80
2019-05-26T16:40:04.551Z,27.70
2019-05-26T16:42:33.229Z,27.50
2019-05-26T16:45:01.993Z,27.30
2019-05-26T16:47:30.795Z,27.30
2019-05-26T16:49:59.637Z,27.30
2019-05-26T16:52:28.361Z,27.30
2019-05-26T16:54:57.086Z,27.30
2019-05-26T16:57:25.872Z,27.30
2019-05-26T16:59:54.559Z,27.10
2019-05-26T17:02:23.274Z,27.10
2019-05-26T17:04:52.023Z,27.00
2019-05-26T17:07:20.731Z,26.90
2019-05-26T17:09:49.469Z,26.90
2019-05-26T17:12:20.913Z,26.80
2019-05-26T17:14:49.662Z,26.80
2019-05-26T17:17:18.404Z,26.80
2019-05-26T17:19:47.100Z,26.80
2019-05-26T17:22:15.884Z,26.70
2019-05-26T17:24:44.607Z,26.60
2019-05-26T17:27:13.304Z,26.50
2019-05-26T17:29:42.081Z,26.50
2019-05-26T17:32:10.788Z,26.60
2019-05-26T17:34:39.534Z,26.60
2019-05-26T17:37:08.235Z,26.40
2019-05-26T17:39:36.926Z,26.20
2019-05-26T17:42:05.821Z,26.20
2019-05-26T17:44:34.516Z,26.00
2019-05-26T17:47:03.383Z,25.90
2019-05-26T17:49:32.103Z,25.80
2019-05-26T17:52:00.817Z,25.70
2019-05-26T17:54:29.764Z,25.70
2019-05-26T17:56:58.459Z,25.50
2019-05-26T17:59:27.138Z,25.40
2019-05-26T18:01:55.878Z,25.20
2019-05-26T18:04:24.567Z,25.20
2019-05-26T18:06:53.330Z,25.10
2019-05-26T18:09:21.997Z,25.00
2019-05-26T18:11:50.713Z,25.00
2019-05-26T18:14:19.440Z,24.80
2019-05-26T18:16:48.146Z,24.70
2019-05-26T18:19:16.939Z,24.60
2019-05-26T18:21:45.617Z,24.60
2019-05-26T18:24:14.308Z,24.50
2019-05-26T18:26:43.074Z,24.40
2019-05-26T18:29:11.807Z,24.40
2019-05-26T18:31:40.509Z,24.30
2019-05-26T18:34:09.239Z,24.20
2019-05-26T18:36:37.937Z,24.10
2019-05-26T18:39:09.015Z,24.10
2019-05-26T18:41:37.699Z,24.20
2019-05-26T18:44:07.465Z,24.20
2019-05-26T18:46:36.213Z,24.10
2019-05-26T18:49:04.915Z,24.00
2019-05-26T18:51:33.741Z,23.80
2019-05-26T18:54:02.454Z,23.70
2019-05-26T18:56:31.144Z,23.60
2019-05-26T18:58:59.876Z,23.50
2019-05-26T19:01:28.573Z,23.30
2019-05-26T19:03:57.417Z,23.20
2019-05-26T19:06:26.156Z,23.10
2019-05-26T19:08:54.882Z,23.00
2019-05-26T19:11:23.658Z,23.00
2019-05-26T19:13:52.388Z,22.90
2019-05-26T19:16:21.052Z,22.80
2019-05-26T19:18:49.838Z,22.80
2019-05-26T19:21:18.543Z,22.70
2019-05-26T19:23:47.332Z,22.70
2019-05-26T19:26:16.036Z,22.70
2019-05-26T19:28:44.726Z,22.60
2019-05-26T19:31:13.435Z,22.60
2019-05-26T19:33:42.126Z,22.60
2019-05-26T19:36:10.907Z,22.40
2019-05-26T19:38:39.674Z,22.30
2019-05-26T19:41:08.388Z,22.20
2019-05-26T19:43:37.135Z,22.10
2019-05-26T19:46:05.931Z,22.00
2019-05-26T19:48:37.038Z,22.00
2019-05-26T19:51:06.368Z,22.00
2019-05-26T19:53:35.470Z,21.90
2019-05-26T19:56:04.249Z,21.90
2019-05-26T19:58:32.978Z,21.90
2019-05-26T20:01:01.656Z,21.90
2019-05-26T20:03:30.412Z,21.90
2019-05-26T20:05:59.089Z,21.90
2019-05-26T20:08:27.859Z,21.90
2019-05-26T20:10:56.644Z,21.70
2019-05-26T20:13:25.381Z,21.70
2019-05-26T20:15:54.235Z,21.60
2019-05-26T20:18:22.955Z,21.50
2019-05-26T20:20:51.743Z,21.40
2019-05-26T20:23:20.404Z,21.40
2019-05-26T20:25:49.103Z,21.40
2019-05-26T20:28:17.847Z,21.30
2019-05-26T20:30:46.541Z,21.20
2019-05-26T20:33:15.371Z,21.30
2019-05-26T20:35:44.142Z,21.30
2019-05-26T20:38:12.812Z,21.20
2019-05-26T20:40:41.585Z,21.00
2019-05-26T20:43:10.276Z,21.00
2019-05-26T20:45:39.000Z,20.90
2019-05-26T20:48:07.876Z,20.80
2019-05-26T20:50:36.565Z,20.80
2019-05-26T20:53:05.395Z,20.70
2019-05-26T20:55:34.078Z,20.70
2019-05-26T20:58:02.793Z,20.70
2019-05-26T21:00:31.533Z,20.60
2019-05-26T21:03:00.218Z,20.50
2019-05-26T21:05:29.092Z,20.50
2019-05-26T21:07:57.876Z,20.40
2019-05-26T21:10:26.568Z,20.40
2019-05-26T21:12:55.318Z,20.30
2019-05-26T21:15:24.000Z,20.30
2019-05-26T21:17:52.769Z,20.10
2019-05-26T21:20:21.860Z,20.10
2019-05-26T21:22:50.711Z,20.10
2019-05-26T21:25:19.564Z,20.10
2019-05-26T21:27:48.283Z,20.10
2019-05-26T21:30:16.969Z,20.10
2019-05-26T21:32:45.702Z,20.20
2019-05-26T21:35:14.419Z,20.20
2019-05-26T21:37:43.213Z,20.10
2019-05-26T21:40:11.921Z,20.10
2019-05-26T21:42:40.586Z,20.00
2019-05-26T21:45:09.326Z,19.90
2019-05-26T21:47:38.022Z,20.00
2019-05-26T21:50:09.807Z,19.90
2019-05-26T21:52:38.507Z,19.80
2019-05-26T21:55:07.198Z,19.80
2019-05-26T21:57:35.926Z,19.70
2019-05-26T22:00:08.091Z,19.70
2019-05-26T22:02:36.844Z,19.60
2019-05-26T22:05:07.240Z,19.60
2019-05-26T22:07:35.925Z,19.60
2019-05-26T22:10:05.471Z,19.50
2019-05-26T22:12:34.162Z,19.40
2019-05-26T22:15:02.851Z,19.40
2019-05-26T22:17:31.586Z,19.40
2019-05-26T22:20:00.267Z,19.40
2019-05-26T22:22:29.020Z,19.50
2019-05-26T22:24:57.715Z,19.40
2019-05-26T22:27:26.402Z,19.30
2019-05-26T22:29:55.128Z,19.30
2019-05-26T22:32:23.813Z,19.20
2019-05-26T22:34:52.580Z,19.00
2019-05-26T22:37:21.258Z,19.00
2019-05-26T22:39:49.938Z,19.00
2019-05-26T22:42:18.663Z,18.90
2019-05-26T22:44:47.376Z,18.90
2019-05-26T22:47:16.117Z,18.90
2019-05-26T22:49:44.857Z,18.80
2019-05-26T22:52:17.040Z,18.80
2019-05-26T22:54:44.056Z,18.80
2019-05-26T22:57:12.800Z,18.80
2019-05-26T22:59:41.482Z,18.70
2019-05-26T23:02:10.350Z,18.70
2019-05-26T23:04:39.012Z,18.70
2019-05-26T23:07:07.793Z,18.60
2019-05-26T23:09:36.472Z,18.60
2019-05-26T23:12:05.166Z,18.70
2019-05-26T23:14:33.894Z,18.60
2019-05-26T23:17:02.576Z,18.60
2019-05-26T23:19:31.334Z,18.50
2019-05-26T23:22:00.139Z,18.50
2019-05-26T23:24:28.882Z,18.40
2019-05-26T23:26:57.604Z,18.40
2019-05-26T23:29:26.304Z,18.40
2019-05-26T23:31:54.990Z,18.30
2019-05-26T23:34:23.725Z,18.30
2019-05-26T23:36:52.408Z,18.30
2019-05-26T23:39:21.146Z,18.30
2019-05-26T23:41:49.829Z,18.20
2019-05-26T23:44:18.501Z,18.30
2019-05-26T23:46:47.218Z,18.30
2019-05-26T23:49:15.989Z,18.30
2019-05-26T23:51:44.734Z,18.10
2019-05-26T23:54:13.428Z,18.10
2019-05-26T23:56:42.110Z,18.00
2019-05-26T23:59:10.830Z,18.00
